sensor_id;sensor_type;location;lat;lon;timestamp;pressure;altitude;pressure_sealevel;temperature;humidity
8160;BME280;27404;52.398;9.646;2022-08-27T00:00:49;100662.59;;;19.32;100.00
8160;BME280;27404;52.398;9.646;2022-08-27T00:03:16;100651.81;;;19.31;100.00
8160;BME280;27404;52.398;9.646;2022-08-27T00:05:42;100668.72;;;19.29;100.00
8160;BME280;27404;52.398;9.646;2022-08-27T00:08:09;100656.56;;;19.25;100.00
8160;BME280;27404;52.398;9.646;2022-08-27T00:10:37;100657.94;;;19.28;100.00
8160;BME280;27404;52.398;9.646;2022-08-27T00:13:03;100664.16;;;19.14;100.00
8160;BME280;27404;52.398;9.646;2022-08-27T00:15:29;100659.47;;;19.15;100.00
8160;BME280;27404;52.398;9.646;2022-08-27T00:17:55;100650.63;;;19.13;100.00
8160;BME280;27404;52.398;9.646;2022-08-27T00:20:23;100648.13;;;19.11;100.00
8160;BME280;27404;52.398;9.646;2022-08-27T00:22:50;100646.25;;;19.06;100.00
8160;BME280;27404;52.398;9.646;2022-08-27T00:25:17;100639.59;;;19.07;100.00
8160;BME280;27404;52.398;9.646;2022-08-27T00:27:42;100644.56;;;19.11;100.00
8160;BME280;27404;52.398;9.646;2022-08-27T00:30:11;100644.00;;;19.08;100.00
8160;BME280;27404;52.398;9.646;2022-08-27T00:32:38;100645.91;;;19.13;100.00
8160;BME280;27404;52.398;9.646;2022-08-27T00:35:06;100633.47;;;19.11;100.00
8160;BME280;27404;52.398;9.646;2022-08-27T00:37:32;100639.88;;;19.06;100.00
8160;BME280;27404;52.398;9.646;2022-08-27T00:39:58;100641.25;;;19.08;100.00
8160;BME280;27404;52.398;9.646;2022-08-27T00:42:24;100642.09;;;19.04;100.00
8160;BME280;27404;52.398;9.646;2022-08-27T00:44:50;100644.59;;;19.05;100.00
8160;BME280;27404;52.398;9.646;2022-08-27T00:47:19;100643.75;;;19.05;100.00
8160;BME280;27404;52.398;9.646;2022-08-27T00:49:51;100642.06;;;19.09;100.00
8160;BME280;27404;52.398;9.646;2022-08-27T00:55:28;100642.91;;;19.09;100.00
8160;BME280;27404;52.398;9.646;2022-08-27T00:58:17;100656.00;;;18.99;100.00
8160;BME280;27404;52.398;9.646;2022-08-27T01:00:44;100655.75;;;18.95;100.00
8160;BME280;27404;52.398;9.646;2022-08-27T01:03:10;100653.25;;;18.93;100.00
8160;BME280;27404;52.398;9.646;2022-08-27T01:05:36;100655.50;;;18.91;100.00
8160;BME280;27404;52.398;9.646;2022-08-27T01:10:47;100658.34;;;18.86;100.00
8160;BME280;27404;52.398;9.646;2022-08-27T01:13:17;100657.50;;;18.86;100.00
8160;BME280;27404;52.398;9.646;2022-08-27T01:15:43;100663.38;;;18.79;100.00
8160;BME280;27404;52.398;9.646;2022-08-27T01:18:09;100666.66;;;18.86;100.00
8160;BME280;27404;52.398;9.646;2022-08-27T01:26:01;100663.06;;;18.80;100.00
8160;BME280;27404;52.398;9.646;2022-08-27T01:28:28;100667.81;;;18.80;100.00
8160;BME280;27404;52.398;9.646;2022-08-27T01:30:54;100668.88;;;18.84;100.00
8160;BME280;27404;52.398;9.646;2022-08-27T01:33:20;100676.06;;;18.85;100.00
8160;BME280;27404;52.398;9.646;2022-08-27T01:35:48;100672.84;;;18.73;100.00
8160;BME280;27404;52.398;9.646;2022-08-27T01:38:15;100676.16;;;18.75;100.00
8160;BME280;27404;52.398;9.646;2022-08-27T01:40:42;100671.19;;;18.72;100.00
8160;BME280;27404;52.398;9.646;2022-08-27T01:43:08;100679.78;;;18.70;100.00
8160;BME280;27404;52.398;9.646;2022-08-27T01:45:39;100676.69;;;18.77;100.00
8160;BME280;27404;52.398;9.646;2022-08-27T01:48:09;100685.81;;;18.77;100.00
8160;BME280;27404;52.398;9.646;2022-08-27T01:50:37;100675.56;;;18.78;100.00
8160;BME280;27404;52.398;9.646;2022-08-27T01:53:07;100679.19;;;18.73;100.00
8160;BME280;27404;52.398;9.646;2022-08-27T01:55:34;100678.69;;;18.66;100.00
8160;BME280;27404;52.398;9.646;2022-08-27T01:57:59;100680.63;;;18.71;100.00
8160;BME280;27404;52.398;9.646;2022-08-27T02:00:28;100680.09;;;18.69;100.00
8160;BME280;27404;52.398;9.646;2022-08-27T02:02:55;100686.97;;;18.71;100.00
8160;BME280;27404;52.398;9.646;2022-08-27T02:05:22;100686.47;;;18.64;100.00
8160;BME280;27404;52.398;9.646;2022-08-27T02:07:47;100684.53;;;18.64;100.00
8160;BME280;27404;52.398;9.646;2022-08-27T02:10:18;100683.66;;;18.69;100.00
8160;BME280;27404;52.398;9.646;2022-08-27T02:12:43;100687.59;;;18.63;100.00
8160;BME280;27404;52.398;9.646;2022-08-27T02:15:09;100693.44;;;18.61;100.00
8160;BME280;27404;52.398;9.646;2022-08-27T02:17:35;100692.84;;;18.64;100.00
8160;BME280;27404;52.398;9.646;2022-08-27T02:20:02;100690.88;;;18.65;100.00
8160;BME280;27404;52.398;9.646;2022-08-27T02:22:28;100698.97;;;18.61;100.00
8160;BME280;27404;52.398;9.646;2022-08-27T02:24:53;100691.50;;;18.57;100.00
8160;BME280;27404;52.398;9.646;2022-08-27T02:27:19;100697.59;;;18.59;100.00
8160;BME280;27404;52.398;9.646;2022-08-27T02:29:45;100700.63;;;18.62;100.00
8160;BME280;27404;52.398;9.646;2022-08-27T02:32:13;100696.19;;;18.61;100.00
8160;BME280;27404;52.398;9.646;2022-08-27T02:34:39;100701.97;;;18.65;100.00
8160;BME280;27404;52.398;9.646;2022-08-27T02:37:04;100704.19;;;18.63;100.00
8160;BME280;27404;52.398;9.646;2022-08-27T02:39:32;100703.91;;;18.64;100.00
8160;BME280;27404;52.398;9.646;2022-08-27T02:41:57;100696.00;;;18.53;100.00
8160;BME280;27404;52.398;9.646;2022-08-27T02:44:23;100701.56;;;18.47;100.00
8160;BME280;27404;52.398;9.646;2022-08-27T02:46:48;100702.41;;;18.43;100.00
8160;BME280;27404;52.398;9.646;2022-08-27T02:49:14;100707.13;;;18.42;100.00
8160;BME280;27404;52.398;9.646;2022-08-27T02:51:39;100699.06;;;18.46;100.00
8160;BME280;27404;52.398;9.646;2022-08-27T02:54:05;100701.56;;;18.47;100.00
8160;BME280;27404;52.398;9.646;2022-08-27T02:56:31;100703.53;;;18.42;100.00
8160;BME280;27404;52.398;9.646;2022-08-27T02:58:57;100707.66;;;18.44;100.00
8160;BME280;27404;52.398;9.646;2022-08-27T03:01:23;100697.72;;;18.43;100.00
8160;BME280;27404;52.398;9.646;2022-08-27T03:03:49;100706.31;;;18.37;100.00
8160;BME280;27404;52.398;9.646;2022-08-27T03:06:14;100707.41;;;18.41;100.00
8160;BME280;27404;52.398;9.646;2022-08-27T03:08:40;100705.22;;;18.38;100.00
8160;BME280;27404;52.398;9.646;2022-08-27T03:11:05;100701.09;;;18.35;100.00
8160;BME280;27404;52.398;9.646;2022-08-27T03:13:37;100701.38;;;18.28;100.00
8160;BME280;27404;52.398;9.646;2022-08-27T03:16:04;100701.94;;;18.30;100.00
8160;BME280;27404;52.398;9.646;2022-08-27T03:18:30;100705.28;;;18.27;100.00
8160;BME280;27404;52.398;9.646;2022-08-27T03:20:57;100703.63;;;18.26;100.00
8160;BME280;27404;52.398;9.646;2022-08-27T03:23:26;100697.50;;;18.29;100.00
8160;BME280;27404;52.398;9.646;2022-08-27T03:25:57;100698.06;;;18.31;100.00
8160;BME280;27404;52.398;9.646;2022-08-27T03:28:25;100691.94;;;18.34;100.00
8160;BME280;27404;52.398;9.646;2022-08-27T03:30:54;100690.59;;;18.32;100.00
8160;BME280;27404;52.398;9.646;2022-08-27T03:33:22;100693.63;;;18.30;100.00
8160;BME280;27404;52.398;9.646;2022-08-27T03:35:49;100687.00;;;18.26;100.00
8160;BME280;27404;52.398;9.646;2022-08-27T03:38:15;100690.41;;;18.18;100.00
8160;BME280;27404;52.398;9.646;2022-08-27T03:40:41;100693.72;;;18.20;100.00
8160;BME280;27404;52.398;9.646;2022-08-27T03:43:08;100695.41;;;18.16;100.00
8160;BME280;27404;52.398;9.646;2022-08-27T03:45:34;100685.72;;;18.13;100.00
8160;BME280;27404;52.398;9.646;2022-08-27T03:48:00;100687.59;;;18.23;100.00
8160;BME280;27404;52.398;9.646;2022-08-27T03:50:26;100686.53;;;18.19;100.00
8160;BME280;27404;52.398;9.646;2022-08-27T03:52:51;100679.34;;;18.18;100.00
8160;BME280;27404;52.398;9.646;2022-08-27T03:55:17;100686.25;;;18.15;100.00
8160;BME280;27404;52.398;9.646;2022-08-27T03:57:42;100676.56;;;18.18;100.00
8160;BME280;27404;52.398;9.646;2022-08-27T04:00:09;100676.31;;;18.14;100.00
8160;BME280;27404;52.398;9.646;2022-08-27T04:02:36;100676.06;;;18.11;100.00
8160;BME280;27404;52.398;9.646;2022-08-27T04:05:03;100672.75;;;18.09;100.00
8160;BME280;27404;52.398;9.646;2022-08-27T04:07:28;100670.81;;;18.04;100.00
8160;BME280;27404;52.398;9.646;2022-08-27T04:09:54;100677.44;;;18.08;100.00
8160;BME280;27404;52.398;9.646;2022-08-27T04:12:19;100676.63;;;18.08;100.00
8160;BME280;27404;52.398;9.646;2022-08-27T04:14:45;100681.03;;;18.14;100.00
8160;BME280;27404;52.398;9.646;2022-08-27T04:17:10;100686.59;;;18.09;100.00
8160;BME280;27404;52.398;9.646;2022-08-27T04:19:35;100682.16;;;18.08;100.00
8160;BME280;27404;52.398;9.646;2022-08-27T04:22:04;100689.63;;;18.07;100.00
8160;BME280;27404;52.398;9.646;2022-08-27T04:24:31;100687.94;;;18.11;100.00
8160;BME280;27404;52.398;9.646;2022-08-27T04:26:58;100685.22;;;18.01;100.00
8160;BME280;27404;52.398;9.646;2022-08-27T04:29:24;100697.13;;;18.01;100.00
8160;BME280;27404;52.398;9.646;2022-08-27T04:31:50;100694.34;;;18.07;100.00
8160;BME280;27404;52.398;9.646;2022-08-27T04:34:17;100693.47;;;18.11;100.00
8160;BME280;27404;52.398;9.646;2022-08-27T04:36:43;100697.34;;;18.10;100.00
8160;BME280;27404;52.398;9.646;2022-08-27T04:39:08;100687.72;;;18.02;100.00
8160;BME280;27404;52.398;9.646;2022-08-27T04:41:34;100694.91;;;18.03;100.00
8160;BME280;27404;52.398;9.646;2022-08-27T04:44:08;100699.34;;;17.99;100.00
8160;BME280;27404;52.398;9.646;2022-08-27T04:46:36;100701.78;;;18.06;100.00
8160;BME280;27404;52.398;9.646;2022-08-27T04:49:06;100701.25;;;18.04;100.00
8160;BME280;27404;52.398;9.646;2022-08-27T04:51:32;100707.34;;;18.01;100.00
8160;BME280;27404;52.398;9.646;2022-08-27T04:53:58;100711.19;;;18.10;100.00
8160;BME280;27404;52.398;9.646;2022-08-27T04:56:26;100718.09;;;18.13;100.00
8160;BME280;27404;52.398;9.646;2022-08-27T04:58:51;100714.53;;;18.02;100.00
8160;BME280;27404;52.398;9.646;2022-08-27T05:01:20;100715.63;;;17.96;100.00
8160;BME280;27404;52.398;9.646;2022-08-27T05:03:46;100718.72;;;17.99;100.00
8160;BME280;27404;52.398;9.646;2022-08-27T05:06:12;100716.50;;;18.01;100.00
8160;BME280;27404;52.398;9.646;2022-08-27T05:08:38;100719.78;;;17.98;100.00
8160;BME280;27404;52.398;9.646;2022-08-27T05:11:10;100716.50;;;18.01;100.00
8160;BME280;27404;52.398;9.646;2022-08-27T05:13:37;100718.41;;;18.06;100.00
8160;BME280;27404;52.398;9.646;2022-08-27T05:16:06;100709.81;;;18.08;100.00
8160;BME280;27404;52.398;9.646;2022-08-27T05:18:32;100712.59;;;18.08;100.00
8160;BME280;27404;52.398;9.646;2022-08-27T05:20:59;100714.22;;;18.14;100.00
8160;BME280;27404;52.398;9.646;2022-08-27T05:23:24;100713.16;;;18.04;100.00
8160;BME280;27404;52.398;9.646;2022-08-27T05:25:53;100714.53;;;18.02;100.00
8160;BME280;27404;52.398;9.646;2022-08-27T05:28:20;100713.72;;;18.01;100.00
8160;BME280;27404;52.398;9.646;2022-08-27T05:30:50;100718.97;;;18.03;100.00
8160;BME280;27404;52.398;9.646;2022-08-27T05:33:19;100714.00;;;18.00;100.00
8160;BME280;27404;52.398;9.646;2022-08-27T05:35:47;100717.59;;;18.05;100.00
8160;BME280;27404;52.398;9.646;2022-08-27T05:38:13;100718.13;;;18.08;100.00
8160;BME280;27404;52.398;9.646;2022-08-27T05:40:39;100715.94;;;18.04;100.00
8160;BME280;27404;52.398;9.646;2022-08-27T05:43:06;100716.16;;;18.08;100.00
8160;BME280;27404;52.398;9.646;2022-08-27T05:45:33;100712.28;;;18.09;100.00
8160;BME280;27404;52.398;9.646;2022-08-27T05:48:04;100715.88;;;18.15;100.00
8160;BME280;27404;52.398;9.646;2022-08-27T05:50:29;100719.19;;;18.17;100.00
8160;BME280;27404;52.398;9.646;2022-08-27T05:52:55;100722.50;;;18.19;100.00
8160;BME280;27404;52.398;9.646;2022-08-27T05:55:20;100716.97;;;18.19;100.00
8160;BME280;27404;52.398;9.646;2022-08-27T05:57:46;100718.00;;;18.23;100.00
8160;BME280;27404;52.398;9.646;2022-08-27T06:00:11;100716.34;;;18.27;100.00
8160;BME280;27404;52.398;9.646;2022-08-27T06:02:55;100718.22;;;18.37;100.00
8160;BME280;27404;52.398;9.646;2022-08-27T06:05:21;100713.78;;;18.41;100.00
8160;BME280;27404;52.398;9.646;2022-08-27T06:07:46;100716.00;;;18.39;100.00
8160;BME280;27404;52.398;9.646;2022-08-27T06:10:12;100715.16;;;18.39;100.00
8160;BME280;27404;52.398;9.646;2022-08-27T06:12:37;100716.28;;;18.38;100.00
8160;BME280;27404;52.398;9.646;2022-08-27T06:17:31;100716.81;;;18.40;100.00
8160;BME280;27404;52.398;9.646;2022-08-27T06:19:56;100722.06;;;18.46;100.00
8160;BME280;27404;52.398;9.646;2022-08-27T06:22:22;100723.97;;;18.46;100.00
8160;BME280;27404;52.398;9.646;2022-08-27T06:24:48;100716.22;;;18.48;100.00
8160;BME280;27404;52.398;9.646;2022-08-27T06:27:15;100716.47;;;18.52;100.00
8160;BME280;27404;52.398;9.646;2022-08-27T06:29:41;100722.84;;;18.52;100.00
8160;BME280;27404;52.398;9.646;2022-08-27T06:32:07;100722.84;;;18.52;100.00
8160;BME280;27404;52.398;9.646;2022-08-27T06:34:34;100722.28;;;18.50;100.00
8160;BME280;27404;52.398;9.646;2022-08-27T06:37:00;100728.38;;;18.52;100.00
8160;BME280;27404;52.398;9.646;2022-08-27T06:39:25;100720.91;;;18.53;100.00
8160;BME280;27404;52.398;9.646;2022-08-27T06:41:51;100725.03;;;18.55;100.00
8160;BME280;27404;52.398;9.646;2022-08-27T06:44:17;100727.22;;;18.58;100.00
8160;BME280;27404;52.398;9.646;2022-08-27T06:46:43;100735.88;;;18.52;100.00
8160;BME280;27404;52.398;9.646;2022-08-27T06:49:10;100733.41;;;18.45;100.00
8160;BME280;27404;52.398;9.646;2022-08-27T06:51:37;100735.31;;;18.49;100.00
8160;BME280;27404;52.398;9.646;2022-08-27T06:54:06;100740.22;;;18.58;100.00
8160;BME280;27404;52.398;9.646;2022-08-27T06:56:32;100735.50;;;18.63;100.00
8160;BME280;27404;52.398;9.646;2022-08-27T06:59:01;100736.59;;;18.62;100.00
8160;BME280;27404;52.398;9.646;2022-08-27T07:01:31;100737.88;;;18.75;100.00
8160;BME280;27404;52.398;9.646;2022-08-27T07:03:59;100735.66;;;18.77;100.00
8160;BME280;27404;52.398;9.646;2022-08-27T07:06:27;100752.03;;;18.74;100.00
8160;BME280;27404;52.398;9.646;2022-08-27T07:08:53;100742.28;;;18.82;100.00
8160;BME280;27404;52.398;9.646;2022-08-27T07:11:20;100749.19;;;18.84;100.00
8160;BME280;27404;52.398;9.646;2022-08-27T07:13:46;100749.75;;;18.86;100.00
8160;BME280;27404;52.398;9.646;2022-08-27T07:16:15;100747.25;;;18.85;100.00
8160;BME280;27404;52.398;9.646;2022-08-27T07:18:41;100744.47;;;18.85;100.00
8160;BME280;27404;52.398;9.646;2022-08-27T07:21:07;100756.94;;;18.87;100.00
8160;BME280;27404;52.398;9.646;2022-08-27T07:23:35;100754.88;;;19.03;100.00
8160;BME280;27404;52.398;9.646;2022-08-27T07:26:04;100751.22;;;19.08;100.00
8160;BME280;27404;52.398;9.646;2022-08-27T07:28:31;100746.13;;;19.20;100.00
8160;BME280;27404;52.398;9.646;2022-08-27T07:30:56;100757.66;;;19.33;100.00
8160;BME280;27404;52.398;9.646;2022-08-27T07:33:22;100743.34;;;19.50;100.00
8160;BME280;27404;52.398;9.646;2022-08-27T07:35:49;100753.50;;;19.60;100.00
8160;BME280;27404;52.398;9.646;2022-08-27T07:38:16;100752.09;;;19.62;100.00
8160;BME280;27404;52.398;9.646;2022-08-27T07:40:42;100754.59;;;19.59;100.00
8160;BME280;27404;52.398;9.646;2022-08-27T07:43:08;100755.63;;;19.68;100.00
8160;BME280;27404;52.398;9.646;2022-08-27T07:45:52;100746.06;;;19.79;100.00
8160;BME280;27404;52.398;9.646;2022-08-27T07:48:21;100753.47;;;19.89;100.00
8160;BME280;27404;52.398;9.646;2022-08-27T07:50:47;100752.69;;;20.08;100.00
8160;BME280;27404;52.398;9.646;2022-08-27T07:53:13;100749.44;;;20.01;100.00
8160;BME280;27404;52.398;9.646;2022-08-27T07:55:38;100753.81;;;20.07;100.00
8160;BME280;27404;52.398;9.646;2022-08-27T07:58:05;100758.81;;;20.05;100.00
8160;BME280;27404;52.398;9.646;2022-08-27T08:00:31;100755.25;;;20.04;100.00
8160;BME280;27404;52.398;9.646;2022-08-27T08:02:57;100760.13;;;20.12;100.00
8160;BME280;27404;52.398;9.646;2022-08-27T08:05:23;100754.94;;;20.06;100.00
8160;BME280;27404;52.398;9.646;2022-08-27T08:07:48;100761.00;;;20.08;100.00
8160;BME280;27404;52.398;9.646;2022-08-27T08:10:16;100765.53;;;20.23;100.00
8160;BME280;27404;52.398;9.646;2022-08-27T08:12:44;100762.63;;;20.33;100.00
8160;BME280;27404;52.398;9.646;2022-08-27T08:15:11;100767.28;;;20.19;100.00
8160;BME280;27404;52.398;9.646;2022-08-27T08:17:37;100770.94;;;20.14;100.00
8160;BME280;27404;52.398;9.646;2022-08-27T08:20:04;100778.38;;;20.19;100.00
8160;BME280;27404;52.398;9.646;2022-08-27T08:22:32;100781.53;;;20.31;100.00
8160;BME280;27404;52.398;9.646;2022-08-27T08:24:57;100779.06;;;20.30;100.00
8160;BME280;27404;52.398;9.646;2022-08-27T08:27:23;100783.47;;;20.11;100.00
8160;BME280;27404;52.398;9.646;2022-08-27T08:29:49;100784.97;;;19.98;100.00
8160;BME280;27404;52.398;9.646;2022-08-27T08:32:15;100783.69;;;19.91;100.00
8160;BME280;27404;52.398;9.646;2022-08-27T08:34:42;100787.03;;;19.88;100.00
8160;BME280;27404;52.398;9.646;2022-08-27T08:37:09;100799.03;;;19.83;100.00
8160;BME280;27404;52.398;9.646;2022-08-27T08:39:36;100799.31;;;19.81;100.00
8160;BME280;27404;52.398;9.646;2022-08-27T08:42:05;100796.25;;;19.83;100.00
8160;BME280;27404;52.398;9.646;2022-08-27T08:44:40;100797.25;;;19.92;100.00
8160;BME280;27404;52.398;9.646;2022-08-27T08:47:17;100801.22;;;19.86;100.00
8160;BME280;27404;52.398;9.646;2022-08-27T08:52:49;100801.28;;;19.81;100.00
8160;BME280;27404;52.398;9.646;2022-08-27T08:55:36;100804.56;;;19.83;100.00
8160;BME280;27404;52.398;9.646;2022-08-27T08:58:31;100810.22;;;19.73;100.00
8160;BME280;27404;52.398;9.646;2022-08-27T09:01:01;100802.81;;;19.63;100.00
8160;BME280;27404;52.398;9.646;2022-08-27T09:03:28;100805.19;;;19.50;100.00
8160;BME280;27404;52.398;9.646;2022-08-27T09:06:01;100802.94;;;19.52;100.00
8160;BME280;27404;52.398;9.646;2022-08-27T09:08:39;100807.38;;;19.53;100.00
8160;BME280;27404;52.398;9.646;2022-08-27T09:13:48;100817.72;;;19.72;100.00
8160;BME280;27404;52.398;9.646;2022-08-27T09:16:14;100804.03;;;19.81;100.00
8160;BME280;27404;52.398;9.646;2022-08-27T09:18:41;100811.06;;;19.97;100.00
8160;BME280;27404;52.398;9.646;2022-08-27T09:24:17;100811.59;;;20.67;100.00
8160;BME280;27404;52.398;9.646;2022-08-27T09:26:47;100814.38;;;20.86;100.00
8160;BME280;27404;52.398;9.646;2022-08-27T09:29:15;100803.28;;;20.86;100.00
8160;BME280;27404;52.398;9.646;2022-08-27T09:31:46;100810.28;;;20.84;99.39
8160;BME280;27404;52.398;9.646;2022-08-27T09:34:13;100812.72;;;20.66;100.00
8160;BME280;27404;52.398;9.646;2022-08-27T09:37:10;100815.25;;;20.63;100.00
8160;BME280;27404;52.398;9.646;2022-08-27T09:39:56;100818.47;;;20.70;100.00
8160;BME280;27404;52.398;9.646;2022-08-27T09:42:41;100821.19;;;20.75;100.00
8160;BME280;27404;52.398;9.646;2022-08-27T09:45:11;100808.66;;;20.97;99.59
8160;BME280;27404;52.398;9.646;2022-08-27T09:50:08;100807.31;;;21.60;95.12
8160;BME280;27404;52.398;9.646;2022-08-27T09:52:55;100816.94;;;21.68;91.69
8160;BME280;27404;52.398;9.646;2022-08-27T09:57:57;100812.09;;;21.74;91.63
8160;BME280;27404;52.398;9.646;2022-08-27T10:00:39;100806.25;;;22.17;89.96
8160;BME280;27404;52.398;9.646;2022-08-27T10:03:07;100812.53;;;22.23;88.11
8160;BME280;27404;52.398;9.646;2022-08-27T10:05:51;100806.75;;;22.33;87.01
8160;BME280;27404;52.398;9.646;2022-08-27T10:08:42;100805.59;;;22.21;86.88
8160;BME280;27404;52.398;9.646;2022-08-27T10:11:19;100801.50;;;22.04;86.48
8160;BME280;27404;52.398;9.646;2022-08-27T10:30:46;100814.66;;;23.14;75.04
8160;BME280;27404;52.398;9.646;2022-08-27T10:33:21;100807.00;;;23.74;72.58
8160;BME280;27404;52.398;9.646;2022-08-27T10:36:00;100809.66;;;23.79;69.94
8160;BME280;27404;52.398;9.646;2022-08-27T10:38:39;100807.97;;;24.01;68.88
8160;BME280;27404;52.398;9.646;2022-08-27T10:41:16;100809.50;;;23.75;69.98
8160;BME280;27404;52.398;9.646;2022-08-27T10:44:12;100805.91;;;24.33;66.40
8160;BME280;27404;52.398;9.646;2022-08-27T10:47:09;100806.44;;;24.44;64.60
8160;BME280;27404;52.398;9.646;2022-08-27T10:52:28;100808.13;;;24.89;62.53
8160;BME280;27404;52.398;9.646;2022-08-27T10:55:19;100796.44;;;24.43;63.85
8160;BME280;27404;52.398;9.646;2022-08-27T11:01:42;100803.88;;;24.91;60.98
8160;BME280;27404;52.398;9.646;2022-08-27T11:04:11;100796.44;;;24.69;61.85
8160;BME280;27404;52.398;9.646;2022-08-27T11:06:54;100796.81;;;24.76;61.84
8160;BME280;27404;52.398;9.646;2022-08-27T11:12:07;100801.09;;;24.82;59.81
8160;BME280;27404;52.398;9.646;2022-08-27T11:15:10;100802.19;;;24.64;59.97
8160;BME280;27404;52.398;9.646;2022-08-27T11:17:53;100808.97;;;24.89;59.30
8160;BME280;27404;52.398;9.646;2022-08-27T11:20:26;100796.63;;;24.73;60.46
8160;BME280;27404;52.398;9.646;2022-08-27T11:27:47;100797.44;;;24.91;58.66
8160;BME280;27404;52.398;9.646;2022-08-27T11:30:23;100797.59;;;24.86;58.90
8160;BME280;27404;52.398;9.646;2022-08-27T11:32:56;100790.81;;;25.31;58.30
8160;BME280;27404;52.398;9.646;2022-08-27T11:38:39;100799.19;;;25.39;57.86
8160;BME280;27404;52.398;9.646;2022-08-27T11:43:48;100799.03;;;25.53;56.01
8160;BME280;27404;52.398;9.646;2022-08-27T11:46:22;100800.41;;;25.03;58.19
8160;BME280;27404;52.398;9.646;2022-08-27T11:49:01;100807.78;;;25.34;58.54
8160;BME280;27404;52.398;9.646;2022-08-27T11:51:35;100808.47;;;25.13;60.24
8160;BME280;27404;52.398;9.646;2022-08-27T11:54:06;100806.19;;;24.80;59.27
8160;BME280;27404;52.398;9.646;2022-08-27T11:56:41;100809.41;;;25.44;57.75
8160;BME280;27404;52.398;9.646;2022-08-27T11:59:21;100808.09;;;25.41;56.60
8160;BME280;27404;52.398;9.646;2022-08-27T12:01:52;100806.34;;;24.75;59.05
8160;BME280;27404;52.398;9.646;2022-08-27T12:06:49;100813.75;;;24.97;61.06
8160;BME280;27404;52.398;9.646;2022-08-27T12:09:21;100813.38;;;25.17;59.87
8160;BME280;27404;52.398;9.646;2022-08-27T12:14:35;100805.16;;;25.29;57.04
8160;BME280;27404;52.398;9.646;2022-08-27T12:17:19;100798.59;;;24.98;59.37
8160;BME280;27404;52.398;9.646;2022-08-27T12:25:31;100803.50;;;25.19;56.62
8160;BME280;27404;52.398;9.646;2022-08-27T12:28:00;100801.88;;;24.92;59.08
8160;BME280;27404;52.398;9.646;2022-08-27T12:32:56;100804.69;;;24.92;60.83
8160;BME280;27404;52.398;9.646;2022-08-27T12:35:43;100807.91;;;24.41;61.12
8160;BME280;27404;52.398;9.646;2022-08-27T12:40:42;100802.13;;;24.29;62.47
8160;BME280;27404;52.398;9.646;2022-08-27T12:43:21;100807.25;;;24.44;62.73
8160;BME280;27404;52.398;9.646;2022-08-27T12:45:50;100817.75;;;24.30;64.11
8160;BME280;27404;52.398;9.646;2022-08-27T12:48:19;100817.88;;;24.07;65.17
8160;BME280;27404;52.398;9.646;2022-08-27T12:50:53;100812.59;;;23.74;66.50
8160;BME280;27404;52.398;9.646;2022-08-27T12:58:44;100808.56;;;23.57;68.98
8160;BME280;27404;52.398;9.646;2022-08-27T13:03:55;100810.81;;;23.24;70.53
8160;BME280;27404;52.398;9.646;2022-08-27T13:06:30;100813.81;;;23.27;69.63
8160;BME280;27404;52.398;9.646;2022-08-27T13:08:59;100812.72;;;23.37;70.68
8160;BME280;27404;52.398;9.646;2022-08-27T13:11:29;100814.66;;;23.14;71.06
8160;BME280;27404;52.398;9.646;2022-08-27T13:14:11;100807.94;;;22.92;71.73
8160;BME280;27404;52.398;9.646;2022-08-27T13:16:43;100816.91;;;22.66;74.62
8160;BME280;27404;52.398;9.646;2022-08-27T13:19:23;100818.16;;;22.60;75.53
8160;BME280;27404;52.398;9.646;2022-08-27T13:21:50;100808.78;;;22.56;76.54
8160;BME280;27404;52.398;9.646;2022-08-27T13:24:45;100806.56;;;22.44;74.85
8160;BME280;27404;52.398;9.646;2022-08-27T13:27:12;100810.88;;;22.22;76.71
8160;BME280;27404;52.398;9.646;2022-08-27T13:29:39;100814.06;;;22.29;77.11
8160;BME280;27404;52.398;9.646;2022-08-27T13:32:05;100817.16;;;22.28;77.49
8160;BME280;27404;52.398;9.646;2022-08-27T13:34:35;100812.78;;;22.63;75.74
8160;BME280;27404;52.398;9.646;2022-08-27T13:37:19;100815.44;;;22.83;73.70
8160;BME280;27404;52.398;9.646;2022-08-27T13:39:45;100816.91;;;23.03;73.66
8160;BME280;27404;52.398;9.646;2022-08-27T13:42:11;100817.84;;;23.21;71.60
8160;BME280;27404;52.398;9.646;2022-08-27T13:44:39;100823.53;;;23.16;71.57
8160;BME280;27404;52.398;9.646;2022-08-27T13:47:14;100820.34;;;23.22;70.26
8160;BME280;27404;52.398;9.646;2022-08-27T13:49:41;100822.22;;;23.13;71.64
8160;BME280;27404;52.398;9.646;2022-08-27T13:52:26;100827.31;;;23.34;69.96
8160;BME280;27404;52.398;9.646;2022-08-27T13:55:08;100819.00;;;23.43;68.56
8160;BME280;27404;52.398;9.646;2022-08-27T13:57:47;100821.03;;;23.51;68.36
8160;BME280;27404;52.398;9.646;2022-08-27T14:00:15;100823.00;;;23.28;69.02
8160;BME280;27404;52.398;9.646;2022-08-27T14:02:42;100827.94;;;23.08;69.70
8160;BME280;27404;52.398;9.646;2022-08-27T14:05:13;100832.72;;;22.93;70.39
8160;BME280;27404;52.398;9.646;2022-08-27T14:07:45;100827.16;;;22.93;70.61
8160;BME280;27404;52.398;9.646;2022-08-27T14:12:45;100829.38;;;22.69;70.69
8160;BME280;27404;52.398;9.646;2022-08-27T14:15:23;100823.91;;;22.77;71.70
8160;BME280;27404;52.398;9.646;2022-08-27T14:17:51;100820.50;;;23.03;68.10
8160;BME280;27404;52.398;9.646;2022-08-27T14:20:18;100826.06;;;23.03;67.73
8160;BME280;27404;52.398;9.646;2022-08-27T14:22:44;100824.75;;;23.01;67.91
8160;BME280;27404;52.398;9.646;2022-08-27T14:25:10;100824.41;;;22.80;68.31
8160;BME280;27404;52.398;9.646;2022-08-27T14:27:37;100820.81;;;23.02;68.47
8160;BME280;27404;52.398;9.646;2022-08-27T14:30:05;100826.22;;;23.21;67.72
8160;BME280;27404;52.398;9.646;2022-08-27T14:32:31;100827.94;;;23.31;65.86
8160;BME280;27404;52.398;9.646;2022-08-27T14:34:57;100827.75;;;23.27;68.09